Salona, Pennsylvania
Current Conditions -  °F | °C
As of 3:55 AM on Sunday 26 Oct 2014 (Local Time) from KUNV Reporting Station
Clear Clear  
Wind Chill: 52°   Ceiling: Unl
Heat Index: 52°   Visibility: 10mi
Dew Point: 35°   Wind: 8mph
Humidity: 52%   Direction: 270°W
Pressure: 29.71"   Gusts: NA
Location:  41.08°N, 77.46°W
Report Text: KUNV 260755Z AUTO 27007KT 10SM CLR 11/02 A2971 RMK AO2 T01110015
Loading
Personal Weather Stations






























Interactive Weather Map
Tropical Storm Tracking
New forecast layout! Learn more

10-Day Weather Forecast

Advertisements
Track Severe Weather on mobile